ADDS TAF Board (Experimental) INFO

IDs: Format: Expanded Condensed

Updated at: 1651 UTC 23 Nov 2014

KSFO - San Francisco Intl, CA, US

Issued at 1508 UTC 23 Nov 2014
Time1556Z23/17Z23/18Z23/19Z23/20Z23/21Z23/22Z23/23Z24/00Z24/01Z24/02Z24/03Z24/04Z24/05Z
TypeOBSPRVLPRVLPRVLPRVLPRVLPRVLPRVLPRVLPRVLPRVLPRVLPRVLPRVL
VIS10>6>6>6>6>6>6>6>6>6>6>6>6>6
CIG----------------------------
CoverSCTFEWSCTSCTSCTSCTSCTSCTSCTSCTSCTSCTSCTSCT
FltCat--VFRVFRVFRVFRVFRVFRVFRVFRVFRVFRVFRVFRVFR
WX----------------------------
WDirVRBVRB310310310310310310310310310290290290
WSpd03777777777777
WGst----------------------------
R01/19
XWndVRBVRB777777777777
HWndVRBVRB222222222-1-1-1
R10/28
XWndVRBVRB222222222-1-1-1
HWndVRBVRB-7-7-7-7-7-7-7-7-7-7-7-7
Raw TAF
KSFO 231508Z 2315/2418 VRB03KT P6SM FEW200
  FM231800 31007KT P6SM SCT200
  FM240300 29007KT P6SM SCT200


Raw METAR
KSFO 231556Z 00000KT 10SM SCT160 13/09 A3031 RMK AO2 SLP262 T01330094

TAF Board Legend

Hazard VFR MVFR IFR LIFR
Visibility (sm) >5 3≤X≤5 1≤X<3 <1
Ceiling (100 ft) >30 10≤X≤30 5≤X<10 <5
Wind Speed (kt) <10 10≤X<20 20≤X<30 ≥30
Wind Gust (kt) <15 15≤X<25 25≤X<35 ≥35
Weather No Wx Reported VCTS,-TS,-FZRA TS,FZRA +TS,+FZRA


Page loaded:  16:51 UTC  |   08:51 AM Pacific  |   09:51 AM Mountain  |   10:51 AM Central  |   11:51 AM Eastern

 

ADVISORIES

FORECASTS

FORECASTS

OBSERVATIONS

USER TOOLS

ABOUT US